createdAt,value
2023-04-20T00:00:48.426Z,8.25
2023-04-20T00:05:49.438Z,9.05
2023-04-20T00:10:49.744Z,8.63
2023-04-20T00:15:48.733Z,8.88
2023-04-20T00:20:47.589Z,8.38
2023-04-20T00:25:46.559Z,9.57
2023-04-20T00:30:47.002Z,9.75
2023-04-20T00:35:45.892Z,8.80
2023-04-20T00:40:49.027Z,9.07
2023-04-20T00:45:49.578Z,10.40
2023-04-20T00:50:49.483Z,8.88
2023-04-20T00:55:49.142Z,11.05
2023-04-20T01:00:49.582Z,9.70
2023-04-20T01:05:50.103Z,9.20
2023-04-20T01:10:49.010Z,9.80
2023-04-20T01:15:49.453Z,9.80
2023-04-20T01:20:48.518Z,9.35
2023-04-20T01:25:48.844Z,9.73
2023-04-20T01:30:48.044Z,10.95
2023-04-20T01:35:47.046Z,12.90
2023-04-20T01:40:45.962Z,10.70
2023-04-20T01:45:46.683Z,10.40
2023-04-20T01:50:45.696Z,10.25
2023-04-20T01:55:45.361Z,11.25
2023-04-20T02:00:47.244Z,10.98
2023-04-20T02:05:46.185Z,10.52
2023-04-20T02:10:45.204Z,9.85
2023-04-20T02:15:46.680Z,10.50
2023-04-20T02:20:46.234Z,12.65
2023-04-20T02:25:45.164Z,13.48
2023-04-20T02:30:44.256Z,11.00
2023-04-20T02:35:45.484Z,10.48
2023-04-20T02:40:44.509Z,9.57
2023-04-20T02:45:43.474Z,8.93
2023-04-20T02:50:44.903Z,7.95
2023-04-20T02:55:49.451Z,6.88
2023-04-20T03:01:24.186Z,8.93
2023-04-20T03:06:33.594Z,8.10
2023-04-20T03:11:33.098Z,8.25
2023-04-20T03:16:32.847Z,8.43
2023-04-20T03:21:33.722Z,8.65
2023-04-20T03:26:32.751Z,7.70
2023-04-20T03:31:46.707Z,6.80
2023-04-20T03:36:47.250Z,7.88
2023-04-20T03:41:46.414Z,7.93
2023-04-20T03:46:45.504Z,8.90
2023-04-20T03:51:44.376Z,8.88
2023-04-20T03:56:46.206Z,8.45
2023-04-20T04:01:46.010Z,9.98
2023-04-20T04:06:45.302Z,10.13
2023-04-20T04:11:45.796Z,11.23
2023-04-20T04:16:46.591Z,10.93
2023-04-20T04:21:46.080Z,11.00
2023-04-20T04:26:48.841Z,11.18
2023-04-20T04:31:50.583Z,10.85
2023-04-20T04:36:52.572Z,10.50
2023-04-20T04:42:00.813Z,11.10
2023-04-20T04:47:12.216Z,11.23
2023-04-20T04:52:11.488Z,10.35
2023-04-20T04:57:12.182Z,10.88
2023-04-20T05:02:13.384Z,9.75
2023-04-20T05:07:14.266Z,9.77
2023-04-20T05:12:14.521Z,9.90
2023-04-20T05:17:13.383Z,9.95
2023-04-20T05:22:12.182Z,10.02
2023-04-20T05:27:11.472Z,10.38
2023-04-20T05:32:11.807Z,10.40
2023-04-20T05:37:10.613Z,9.63
2023-04-20T05:42:09.357Z,9.93
2023-04-20T05:47:08.916Z,9.93
2023-04-20T05:52:09.164Z,10.55
2023-04-20T05:57:07.889Z,10.07
2023-04-20T06:02:07.149Z,9.43
2023-04-20T06:07:06.049Z,9.02
2023-04-20T06:12:06.631Z,8.63
2023-04-20T06:17:05.386Z,8.95
2023-04-20T06:22:07.787Z,10.20
2023-04-20T06:27:07.966Z,11.40
2023-04-20T06:32:06.997Z,9.77
2023-04-20T06:37:07.713Z,9.57
2023-04-20T06:42:09.776Z,9.63
2023-04-20T06:47:08.739Z,10.00
2023-04-20T06:52:07.628Z,8.25
2023-04-20T06:57:07.892Z,9.35
2023-04-20T07:02:06.924Z,9.38
2023-04-20T07:07:05.789Z,10.05
2023-04-20T07:12:04.735Z,10.35
2023-04-20T07:17:04.964Z,8.43
2023-04-20T07:22:03.844Z,8.82
2023-04-20T07:27:02.799Z,8.55
2023-04-20T07:32:01.732Z,9.38
2023-04-20T07:37:03.932Z,7.93
2023-04-20T07:42:04.634Z,8.07
2023-04-20T07:47:04.860Z,8.27
2023-04-20T07:52:15.871Z,9.35
2023-04-20T07:57:16.282Z,9.23
2023-04-20T08:02:15.442Z,8.07
2023-04-20T08:07:15.883Z,9.65
2023-04-20T08:12:15.099Z,10.10
2023-04-20T08:17:14.078Z,8.82
2023-04-20T08:22:13.629Z,9.20
2023-04-20T08:27:13.780Z,9.18
2023-04-20T08:32:12.680Z,9.07
2023-04-20T08:37:11.523Z,8.23
2023-04-20T08:42:10.502Z,10.10
2023-04-20T08:47:11.652Z,8.68
2023-04-20T08:52:11.318Z,8.18
2023-04-20T08:57:10.077Z,9.70
2023-04-20T09:02:14.748Z,8.20
2023-04-20T09:07:21.040Z,8.45
2023-04-20T09:12:21.608Z,9.15
2023-04-20T09:17:33.651Z,7.57
2023-04-20T09:22:33.752Z,7.90
2023-04-20T09:27:32.627Z,8.43
2023-04-20T09:32:33.288Z,7.82
2023-04-20T09:37:32.065Z,6.50
2023-04-20T09:42:33.356Z,7.07
2023-04-20T09:47:36.943Z,7.50
2023-04-20T09:52:38.934Z,6.63
2023-04-20T10:03:43.336Z,6.07
2023-04-20T10:08:42.822Z,6.93
2023-04-20T10:13:41.594Z,6.43
2023-04-20T10:18:41.931Z,7.35
2023-04-20T10:23:49.466Z,6.70
2023-04-20T10:28:48.313Z,9.57
2023-04-20T10:33:53.505Z,6.93
2023-04-20T10:38:53.049Z,5.40
2023-04-20T10:43:52.294Z,4.53
2023-04-20T10:48:54.124Z,4.30
2023-04-20T10:54:00.687Z,4.45
2023-04-20T10:59:08.359Z,4.00
2023-04-20T11:04:09.340Z,3.60
2023-04-20T11:09:20.066Z,3.33
2023-04-20T11:14:19.221Z,3.50
2023-04-20T11:19:26.887Z,4.05
2023-04-20T11:24:27.461Z,3.20
2023-04-20T11:29:31.982Z,3.13
2023-04-20T11:34:33.612Z,2.83
2023-04-20T11:39:33.605Z,2.50
2023-04-20T11:44:33.283Z,1.83
2023-04-20T11:50:03.558Z,2.00
2023-04-20T11:55:02.824Z,2.80
2023-04-20T12:00:01.715Z,2.08
2023-04-20T12:05:03.316Z,2.17
2023-04-20T12:10:02.406Z,2.45
2023-04-20T12:15:01.209Z,1.73
2023-04-20T12:20:02.866Z,1.85
2023-04-20T12:25:01.847Z,2.30
2023-04-20T12:30:00.567Z,1.92
2023-04-20T12:34:59.337Z,4.38
2023-04-20T12:39:59.437Z,1.88
2023-04-20T12:44:58.228Z,3.83
2023-04-20T12:49:57.032Z,2.40
2023-04-20T12:54:59.503Z,3.38
2023-04-20T12:59:58.507Z,3.40
2023-04-20T13:04:58.481Z,4.00
2023-04-20T13:09:57.335Z,3.42
2023-04-20T13:14:57.523Z,3.17
2023-04-20T13:19:56.408Z,3.60
2023-04-20T13:24:55.226Z,3.65
2023-04-20T13:29:54.039Z,3.38
2023-04-20T13:34:54.231Z,4.15
2023-04-20T13:39:53.024Z,2.40
2023-04-20T13:44:52.514Z,2.90
2023-04-20T13:49:51.402Z,2.35
2023-04-20T13:54:51.697Z,2.38
2023-04-20T13:59:51.374Z,2.95
2023-04-20T14:04:50.238Z,0.90
2023-04-20T14:09:49.199Z,0.90
2023-04-20T14:14:49.651Z,2.30
2023-04-20T14:19:49.681Z,2.53
2023-04-20T14:24:49.201Z,1.50
2023-04-20T14:29:49.432Z,1.63
2023-04-20T14:34:48.217Z,1.30
2023-04-20T14:39:47.258Z,2.20
2023-04-20T14:44:47.847Z,1.33
2023-04-20T14:49:48.018Z,1.73
2023-04-20T14:54:46.980Z,2.07
2023-04-20T14:59:45.808Z,1.42
2023-04-20T15:04:44.616Z,0.90
2023-04-20T15:09:44.934Z,1.10
2023-04-20T15:14:43.857Z,1.20
2023-04-20T15:19:46.149Z,1.25
2023-04-20T15:24:46.448Z,1.33
2023-04-20T15:29:45.197Z,1.20
2023-04-20T15:34:43.951Z,1.20
2023-04-20T15:39:42.751Z,1.77
2023-04-20T15:44:42.934Z,2.00
2023-04-20T15:49:41.956Z,1.10
2023-04-20T15:54:41.328Z,1.50
2023-04-20T15:59:43.819Z,1.13
2023-04-20T16:04:42.885Z,1.20
2023-04-20T16:09:43.126Z,7.88
2023-04-20T16:14:43.428Z,6.15
2023-04-20T16:19:42.205Z,4.82
2023-04-20T16:24:41.259Z,6.10
2023-04-20T16:29:40.134Z,4.85
2023-04-20T16:34:41.136Z,5.22
2023-04-20T16:39:39.927Z,4.80
2023-04-20T16:44:41.107Z,6.15
2023-04-20T16:49:42.030Z,4.15
2023-04-20T16:54:41.802Z,3.30
2023-04-20T16:59:40.700Z,5.70
2023-04-20T17:04:39.553Z,4.15
2023-04-20T17:09:39.851Z,7.47
2023-04-20T17:14:38.699Z,6.13
2023-04-20T17:19:40.743Z,7.60
2023-04-20T17:24:41.071Z,5.28
2023-04-20T17:29:40.333Z,7.20
2023-04-20T17:34:40.101Z,5.93
2023-04-20T17:39:40.608Z,5.60
2023-04-20T17:44:39.696Z,4.82
2023-04-20T17:49:41.464Z,4.53
2023-04-20T17:54:41.787Z,5.10
2023-04-20T17:59:41.914Z,5.18
2023-04-20T18:04:41.055Z,5.50
2023-04-20T18:09:41.441Z,5.53
2023-04-20T18:14:42.568Z,4.35
2023-04-20T18:19:41.987Z,3.78
2023-04-20T18:24:42.327Z,6.97
2023-04-20T18:29:42.869Z,8.52
2023-04-20T18:34:41.717Z,4.35
2023-04-20T18:39:41.904Z,3.47
2023-04-20T18:44:40.752Z,3.10
2023-04-20T18:49:39.613Z,3.30
2023-04-20T18:54:38.658Z,4.07
2023-04-20T18:59:39.013Z,3.20
2023-04-20T19:04:37.983Z,3.10
2023-04-20T19:09:36.736Z,3.47
2023-04-20T19:14:35.543Z,3.88
2023-04-20T19:19:38.244Z,3.90
2023-04-20T19:24:37.094Z,2.72
2023-04-20T19:29:37.140Z,3.42
2023-04-20T19:34:38.029Z,4.03
2023-04-20T19:39:37.022Z,2.95
2023-04-20T19:44:35.950Z,3.67
2023-04-20T19:49:34.714Z,5.10
2023-04-20T19:54:35.278Z,4.65
2023-04-20T19:59:34.061Z,3.72
2023-04-20T20:04:33.806Z,4.18
2023-04-20T20:09:34.044Z,3.95
2023-04-20T20:14:32.957Z,4.93
2023-04-20T20:19:31.807Z,4.57
2023-04-20T20:24:30.548Z,3.25
2023-04-20T20:29:30.731Z,4.07
2023-04-20T20:34:30.829Z,4.03
2023-04-20T20:39:29.674Z,3.70
2023-04-20T20:44:33.027Z,2.78
2023-04-20T20:49:31.822Z,3.58
2023-04-20T20:54:30.534Z,3.72
2023-04-20T20:59:30.661Z,3.72
2023-04-20T21:04:30.288Z,3.60
2023-04-20T21:09:29.017Z,3.53
2023-04-20T21:14:27.970Z,4.00
2023-04-20T21:19:28.150Z,3.10
2023-04-20T21:24:26.937Z,4.05
2023-04-20T21:29:25.811Z,3.85
2023-04-20T21:34:24.753Z,3.67
2023-04-20T21:39:24.934Z,4.05
2023-04-20T21:44:23.698Z,3.75
2023-04-20T21:49:22.694Z,3.70
2023-04-20T21:54:21.564Z,5.10
2023-04-20T21:59:21.857Z,3.45
2023-04-20T22:04:20.808Z,3.65
2023-04-20T22:09:19.785Z,4.03
2023-04-20T22:14:18.892Z,4.28
2023-04-20T22:19:19.228Z,3.67
2023-04-20T22:24:18.112Z,5.82
2023-04-20T22:29:19.626Z,3.45
2023-04-20T22:34:20.154Z,3.72
2023-04-20T22:39:19.210Z,3.03
2023-04-20T22:44:18.181Z,3.80
2023-04-20T22:49:17.187Z,3.00
2023-04-20T22:54:17.864Z,2.80
2023-04-20T22:59:17.098Z,2.55
2023-04-20T23:04:16.370Z,3.08
2023-04-20T23:09:20.505Z,2.70
2023-04-20T23:14:22.572Z,3.20
2023-04-20T23:19:21.918Z,3.55
2023-04-20T23:24:27.995Z,4.10
2023-04-20T23:29:28.613Z,2.63
2023-04-20T23:34:27.567Z,2.90
2023-04-20T23:39:26.279Z,2.95
2023-04-20T23:44:25.148Z,3.05
2023-04-20T23:49:25.465Z,3.30
2023-04-20T23:54:24.154Z,3.20
2023-04-20T23:59:22.914Z,2.85
